This is the latest recevied weather packets stored in our database for station/object KK4PWJ-13. If no packets are shown the sender has not sent any weather packets the latest 10 day(s).
| Time | Temp. | Humidity | Pressure | Rain* | Wind** | Luminosity | Snow |
|---|---|---|---|---|---|---|---|
| 1777344501 | 10.56° C | 87% | 1021.4 hPa | 0 mm | - | 0 W/m² | - |
| 1777344200 | 11.11° C | 87% | 1021.4 hPa | 0 mm | - | 0 W/m² | - |
| 1777343897 | 11.11° C | 87% | 1021.6 hPa | 0 mm | - | 0 W/m² | - |
| 1777343594 | 11.11° C | 86% | 1021.5 hPa | 0 mm | - | 0 W/m² | - |
| 1777343291 | 11.67° C | 86% | 1021.6 hPa | 0 mm | - | 0 W/m² | - |
| 1777342989 | 11.67° C | 86% | 1021.3 hPa | 0 mm | - | 0 W/m² | - |
| 1777342382 | 11.67° C | 86% | 1021.5 hPa | 0 mm | - | 0 W/m² | - |
| 1777342079 | 11.67° C | 85% | 1021.4 hPa | 0 mm | - | 0 W/m² | - |
| 1777341168 | 11.67° C | 84% | 1021.2 hPa | 0 mm | - | 0 W/m² | - |
| 1777340865 | 12.22° C | 84% | 1021.3 hPa | 0 mm | - | 0 W/m² | - |
| 1777339957 | 12.78° C | 83% | 1021.1 hPa | 0 mm | - | 0 W/m² | - |
| 1777339655 | 12.78° C | 82% | 1021.1 hPa | 0 mm | - | 0 W/m² | - |
| 1777339352 | 12.78° C | 82% | 1021 hPa | 0 mm | - | 0 W/m² | - |
| 1777339051 | 12.78° C | 81% | 1020.9 hPa | 0 mm | - | 0 W/m² | - |
| 1777338747 | 12.78° C | 81% | 1020.8 hPa | 0 mm | - | 0 W/m² | - |
| 1777337535 | 13.33° C | 79% | 1020.7 hPa | 0 mm | - | 0 W/m² | - |
| 1777333602 | 16.67° C | 67% | 1020.1 hPa | 0 mm | - | 4 W/m² | - |
| 1777333298 | 16.67° C | 65% | 1020 hPa | 0 mm | - | 6 W/m² | - |
| 1777332997 | 17.22° C | 68% | 1019.9 hPa | 0 mm | - | 7 W/m² | - |
| 1777329062 | 19.44° C | 48% | 1019.6 hPa | 0 mm | - | 19 W/m² | - |
| 1777313922 | 22.22° C | 39% | 1020.8 hPa | 0 mm | - | 900 W/m² | - |
| 1777313619 | 21.67° C | 42% | 1020.6 hPa | 0 mm | - | 908 W/m² | - |
| 1777313013 | 22.78° C | 38% | 1020.8 hPa | 0 mm | - | 920 W/m² | - |
| 1777312406 | 22.22° C | 40% | 1020.7 hPa | 0 mm | - | 927 W/m² | - |
| 1777311497 | 21.11° C | 45% | 1020.8 hPa | 0 mm | - | 940 W/m² | - |
* Rain latest hour (hover to see other rain measurements)
** Current wind speed in m/s (hover to see current wind gust speed)